Time;durP1;ratioP1;P1;durP2;ratioP2;P2;SDS_P1;SDS_P2;PMS_P1;PMS_P2;Temp;Humidity;BMP_temperature;BMP_pressure;BME280_temperature;BME280_humidity;BME280_pressure;Samples;Min_cycle;Max_cycle;Signal;HPM_P1;HPM_P2
2022/08/12 00:43:24;;;;;;;0.25;0.25;;;;;;;22.56;65.64;102205.03;1996292;29;20061;-65
2022/08/12 00:44:27;;;;;;;0.20;0.20;;;;;;;22.55;65.69;102208.97;1994527;29;20190;-65
2022/08/12 00:46:29;;;;;;;0.30;0.30;;;;;;;22.49;66.38;102210.47;1991389;29;20119;-65
2022/08/12 00:46:55;;;;;;;0.30;0.30;;;;;;;22.47;66.28;102207.34;1988634;29;20461;-65
2022/08/12 00:47:58;;;;;;;0.20;0.20;;;;;;;22.48;66.53;102211.66;1990110;29;20472;-65
2022/08/12 00:49:01;;;;;;;0.30;0.30;;;;;;;22.48;66.22;102203.41;1987549;29;20082;-65
2022/08/12 00:50:05;;;;;;;0.30;0.30;;;;;;;22.47;66.23;102202.59;1987586;29;20114;-66
2022/08/12 00:51:08;;;;;;;0.20;0.20;;;;;;;22.48;66.45;102208.91;1994124;29;20062;-66
2022/08/12 00:52:13;;;;;;;0.20;0.20;;;;;;;22.47;66.49;102212.84;1982234;29;20070;-65
2022/08/12 00:53:16;;;;;;;0.20;0.20;;;;;;;22.45;66.50;102210.47;1982483;29;20462;-66
2022/08/12 00:54:21;;;;;;;0.20;0.20;;;;;;;22.41;66.50;102212.41;1992031;29;20507;-65
2022/08/12 00:55:24;;;;;;;0.20;0.20;;;;;;;22.42;66.98;102213.97;1989548;29;20354;-65
2022/08/12 00:56:27;;;;;;;0.20;0.20;;;;;;;22.42;66.98;102210.47;1987593;29;20544;-65
2022/08/12 00:57:35;;;;;;;0.20;0.20;;;;;;;22.42;66.73;102213.22;1993225;29;20406;-65
2022/08/12 00:58:45;;;;;;;0.30;0.30;;;;;;;22.41;66.85;102209.66;1993048;29;20062;-65
2022/08/12 00:59:51;;;;;;;0.22;0.22;;;;;;;22.45;66.58;102212.44;1990910;29;20159;-65
2022/08/12 01:00:59;;;;;;;0.30;0.30;;;;;;;22.44;66.39;102213.63;1991798;29;20181;-65
2022/08/12 01:02:05;;;;;;;0.30;0.30;;;;;;;22.45;66.68;102215.97;1990803;29;20447;-66
2022/08/12 01:03:18;;;;;;;0.30;0.30;;;;;;;22.45;66.49;102215.97;1988313;29;20456;-65
2022/08/12 01:11:31;;;;;;;0.22;0.22;;;;;;;22.21;67.32;102217.44;1987850;29;20523;-66
2022/08/12 01:12:35;;;;;;;0.30;0.30;;;;;;;22.23;67.16;102215.09;1987879;29;20565;-65
2022/08/12 01:13:41;;;;;;;0.20;0.20;;;;;;;22.25;67.57;102211.19;1992389;29;20053;-65
2022/08/12 01:14:44;;;;;;;0.20;0.20;;;;;;;22.27;67.29;102217.06;1992299;29;20069;-66
2022/08/12 01:15:51;;;;;;;0.20;0.20;;;;;;;22.29;67.07;102220.22;1990921;29;20062;-66
2022/08/12 01:16:54;;;;;;;0.30;0.30;;;;;;;22.26;67.68;102226.50;1988938;29;20051;-65
2022/08/12 01:17:57;;;;;;;0.30;0.30;;;;;;;22.29;67.64;102217.47;1986780;29;20094;-65
2022/08/12 01:19:00;;;;;;;0.15;0.15;;;;;;;22.29;67.52;102220.22;1987398;29;20475;-65
2022/08/12 01:20:06;;;;;;;0.30;0.30;;;;;;;22.29;67.69;102223.78;1994351;29;20400;-65
2022/08/12 01:21:15;;;;;;;0.20;0.20;;;;;;;22.27;67.65;102215.13;1988638;29;20145;-65
2022/08/12 01:22:26;;;;;;;0.30;0.30;;;;;;;22.20;67.36;102221.38;1991659;29;20105;-65
2022/08/12 01:23:47;;;;;;;0.30;0.30;;;;;;;22.04;68.23;102209.88;1988540;29;20551;-65
2022/08/12 01:24:57;;;;;;;0.30;0.30;;;;;;;22.05;67.91;102213.44;1990815;29;20365;-65
2022/08/12 01:26:02;;;;;;;0.20;0.20;;;;;;;22.06;68.16;102215.81;1992001;29;20058;-65
2022/08/12 01:27:09;;;;;;;0.30;0.30;;;;;;;22.07;68.12;102211.88;1998636;29;20069;-66
2022/08/12 01:28:15;;;;;;;0.20;0.20;;;;;;;22.06;68.11;102221.31;1991948;29;20050;-65
2022/08/12 01:29:25;;;;;;;0.20;0.20;;;;;;;22.05;68.06;102216.19;1987867;29;20138;-65
2022/08/12 01:30:32;;;;;;;0.22;0.22;;;;;;;22.00;68.12;102219.28;1991886;29;20508;-65
2022/08/12 01:31:37;;;;;;;0.30;0.30;;;;;;;22.00;68.41;102222.84;1988622;29;20105;-65
2022/08/12 01:32:46;;;;;;;0.30;0.30;;;;;;;22.00;68.65;102222.03;1988936;29;20070;-66
2022/08/12 01:34:02;;;;;;;0.30;0.30;;;;;;;22.00;68.49;102217.34;1985170;29;20584;-65
2022/08/12 01:35:07;;;;;;;0.30;0.30;;;;;;;22.00;68.15;102220.09;1986137;29;20086;-65
2022/08/12 01:36:12;;;;;;;0.30;0.30;;;;;;;22.00;68.59;102228.34;1990526;29;20054;-65
2022/08/12 01:37:18;;;;;;;0.20;0.20;;;;;;;22.00;68.14;102217.34;1993196;29;20061;-65
2022/08/12 01:38:23;;;;;;;0.20;0.20;;;;;;;22.02;68.15;102231.47;1987332;29;20596;-65
2022/08/12 01:39:33;;;;;;;0.30;0.30;;;;;;;21.98;68.17;102222.44;1987532;29;20130;-65
2022/08/12 01:40:43;;;;;;;0.30;0.30;;;;;;;21.99;67.76;102226.75;1991628;29;20062;-65
2022/08/12 01:41:52;;;;;;;0.20;0.20;;;;;;;21.97;68.57;102222.81;1992756;29;20062;-65
2022/08/12 01:42:59;;;;;;;0.30;0.30;;;;;;;21.94;68.26;102218.88;1995306;29;20518;-65
2022/08/12 01:44:03;;;;;;;0.22;0.22;;;;;;;21.91;68.68;102218.88;1990210;29;20058;-65
2022/08/12 01:45:06;;;;;;;0.20;0.20;;;;;;;21.88;68.50;102217.66;1987188;29;20067;-66
2022/08/12 01:46:18;;;;;;;0.30;0.30;;;;;;;21.86;68.45;102220.03;1989255;29;20424;-65
2022/08/12 01:47:31;;;;;;;0.25;0.25;;;;;;;21.83;68.80;102222.75;1991483;29;20146;-65
2022/08/12 01:48:59;;;;;;;0.20;0.20;;;;;;;21.75;69.18;102221.91;1992766;29;20130;-65
2022/08/12 01:50:11;;;;;;;0.30;0.30;;;;;;;21.77;69.11;102219.53;1991911;29;20063;-65
2022/08/12 01:51:27;;;;;;;0.20;0.20;;;;;;;21.76;69.45;102211.69;1992951;29;20059;-66
2022/08/12 01:52:58;;;;;;;0.20;0.20;;;;;;;21.73;69.43;102213.22;1987356;29;20093;-66
2022/08/12 01:54:04;;;;;;;0.20;0.20;;;;;;;21.77;68.88;102214.03;1987647;29;20133;-65
2022/08/12 01:55:09;;;;;;;0.30;0.30;;;;;;;21.75;69.35;102221.91;1991510;29;20055;-66
2022/08/12 01:56:14;;;;;;;0.30;0.30;;;;;;;21.76;69.35;102217.97;1999326;29;20136;-65
2022/08/12 01:57:24;;;;;;;0.20;0.20;;;;;;;21.75;69.51;102216.41;1999521;29;20431;-65
2022/08/12 02:00:16;;;;;;;0.20;0.20;;;;;;;21.63;70.35;102210.38;1971387;30;20063;-65
2022/08/12 02:01:19;;;;;;;0.30;0.30;;;;;;;21.63;69.94;102213.91;1986731;29;20565;-65
2022/08/12 02:02:31;;;;;;;0.20;0.20;;;;;;;21.65;70.04;102211.59;1994472;29;20507;-65
2022/08/12 02:11:52;;;;;;;0.30;0.30;;;;;;;21.51;70.67;102200.50;1999735;29;20054;-65
2022/08/12 02:13:06;;;;;;;0.30;0.30;;;;;;;21.56;70.37;102208.41;1992057;29;20070;-65
2022/08/12 02:14:24;;;;;;;0.30;0.30;;;;;;;21.56;70.93;102202.09;1993893;29;20058;-65
2022/08/12 02:15:39;;;;;;;0.35;0.35;;;;;;;21.58;70.49;102200.53;1994202;29;20093;-65
2022/08/12 02:17:04;;;;;;;0.30;0.30;;;;;;;21.52;71.07;102202.06;1993707;29;20579;-65
2022/08/12 02:18:19;;;;;;;0.40;0.40;;;;;;;21.56;70.93;102199.34;1992387;29;20523;-65
2022/08/12 02:19:42;;;;;;;0.30;0.30;;;;;;;21.54;70.91;102199.72;1991965;29;20054;-65
2022/08/12 02:20:52;;;;;;;0.30;0.30;;;;;;;21.57;71.03;102201.72;1993316;29;20904;-65
2022/08/12 02:22:07;;;;;;;0.30;0.30;;;;;;;21.58;70.99;102205.25;1992212;29;20059;-65
2022/08/12 02:23:11;;;;;;;0.20;0.20;;;;;;;21.61;71.42;102199.75;1991570;29;20054;-65
2022/08/12 02:24:19;;;;;;;0.30;0.30;;;;;;;21.62;71.18;102206.84;1989956;29;20561;-65
2022/08/12 02:25:28;;;;;;;0.30;0.30;;;;;;;21.60;71.35;102200.94;1989299;29;20062;-65
2022/08/12 02:26:33;;;;;;;0.30;0.30;;;;;;;21.63;71.45;102197.44;1992901;29;20145;-65
2022/08/12 02:27:41;;;;;;;0.30;0.30;;;;;;;21.63;71.01;102197.44;1987368;29;20469;-65
2022/08/12 02:28:44;;;;;;;0.30;0.30;;;;;;;21.62;71.14;102206.84;1986836;29;20599;-65
2022/08/12 02:29:48;;;;;;;0.32;0.32;;;;;;;21.62;71.71;102195.06;1996396;29;20056;-66
2022/08/12 02:30:50;;;;;;;0.30;0.30;;;;;;;21.61;71.80;102194.28;1993977;29;20396;-66
2022/08/12 02:31:54;;;;;;;0.30;0.30;;;;;;;21.62;71.70;102198.63;1988509;29;20537;-65
2022/08/12 02:32:59;;;;;;;0.40;0.40;;;;;;;21.61;71.83;102196.25;1975272;29;20171;-65
2022/08/12 02:34:02;;;;;;;0.30;0.30;;;;;;;21.58;71.84;102195.03;1983476;29;20055;-65
2022/08/12 02:35:06;;;;;;;0.30;0.30;;;;;;;21.57;72.16;102190.72;1987386;29;20122;-66
2022/08/12 02:36:09;;;;;;;0.30;0.30;;;;;;;21.58;71.75;102200.53;1990927;29;20086;-65
2022/08/12 02:37:14;;;;;;;0.30;0.30;;;;;;;21.59;71.69;102201.34;1991358;29;20092;-65
2022/08/12 02:38:18;;;;;;;0.30;0.30;;;;;;;21.58;71.83;102195.03;1993197;29;20431;-65
2022/08/12 02:39:23;;;;;;;0.30;0.30;;;;;;;21.55;72.25;102193.06;1991435;29;20550;-65
2022/08/12 02:40:29;;;;;;;0.32;0.32;;;;;;;21.52;72.39;102193.81;1989895;29;20110;-64
2022/08/12 02:41:33;;;;;;;0.30;0.30;;;;;;;21.48;72.91;102201.25;1988377;29;20122;-64
2022/08/12 02:42:39;;;;;;;0.30;0.30;;;;;;;21.49;72.45;102197.34;1987002;29;20575;-65
2022/08/12 02:43:48;;;;;;;0.30;0.30;;;;;;;21.51;72.45;102196.94;1987949;29;20073;-64
2022/08/12 02:44:53;;;;;;;0.30;0.30;;;;;;;21.47;72.94;102196.91;1993161;29;20556;-64
2022/08/12 02:45:59;;;;;;;0.40;0.40;;;;;;;21.48;72.49;102195.78;1992331;29;20106;-66
2022/08/12 02:47:05;;;;;;;0.40;0.40;;;;;;;21.47;72.74;102199.66;1988792;29;20412;-65
2022/08/12 02:48:13;;;;;;;0.30;0.30;;;;;;;21.46;72.86;102194.56;1988598;29;20059;-65
2022/08/12 02:49:24;;;;;;;0.30;0.30;;;;;;;21.45;72.77;102193.00;1988973;29;20715;-65
2022/08/12 02:50:30;;;;;;;0.28;0.28;;;;;;;21.44;72.61;102191.38;1986399;29;20051;-65
2022/08/12 02:51:35;;;;;;;0.30;0.30;;;;;;;21.43;72.70;102198.06;1986993;29;20095;-65
2022/08/12 02:52:37;;;;;;;0.30;0.30;;;;;;;21.42;73.11;102194.53;1993240;29;20066;-65
2022/08/12 02:53:41;;;;;;;0.20;0.20;;;;;;;21.42;73.21;102191.78;1990216;29;20050;-66
2022/08/12 02:54:47;;;;;;;0.30;0.30;;;;;;;21.44;72.83;102192.19;1990990;29;20062;-65
2022/08/12 02:55:50;;;;;;;0.30;0.30;;;;;;;21.39;72.93;102192.53;1989913;29;20125;-65
2022/08/12 02:56:53;;;;;;;0.20;0.20;;;;;;;21.39;73.09;102181.53;1987826;29;20058;-65
2022/08/12 02:57:58;;;;;;;0.30;0.30;;;;;;;21.38;73.01;102187.44;1986665;29;20055;-65
2022/08/12 02:59:09;;;;;;;0.25;0.25;;;;;;;21.34;73.47;102183.88;1986751;29;20062;-66
2022/08/12 03:00:12;;;;;;;0.30;0.30;;;;;;;21.30;73.22;102188.53;1990881;29;20058;-65
2022/08/12 03:01:20;;;;;;;0.30;0.30;;;;;;;21.33;72.97;102185.81;1989132;29;20055;-65
2022/08/12 03:02:27;;;;;;;0.30;0.30;;;;;;;21.33;73.33;102180.31;1986918;29;20063;-65
2022/08/12 03:03:31;;;;;;;0.30;0.30;;;;;;;21.33;73.00;102187.78;1989237;29;20582;-65
2022/08/12 03:04:37;;;;;;;0.30;0.30;;;;;;;21.35;73.15;102185.44;1986193;29;20177;-64
2022/08/12 03:05:49;;;;;;;0.30;0.30;;;;;;;21.35;73.29;102182.69;1986452;29;20062;-65
2022/08/12 03:07:03;;;;;;;0.22;0.22;;;;;;;21.33;72.95;102188.56;1993888;29;20062;-65
2022/08/12 03:08:11;;;;;;;0.20;0.20;;;;;;;21.32;72.98;102187.00;1989695;29;20256;-66
2022/08/12 03:09:47;;;;;;;0.30;0.30;;;;;;;21.27;73.38;102181.84;1991961;29;20094;-65
2022/08/12 03:11:14;;;;;;;0.30;0.30;;;;;;;21.25;73.02;102180.66;1987449;29;20126;-67
2022/08/12 03:12:18;;;;;;;0.30;0.30;;;;;;;21.26;72.72;102188.53;1986539;29;20085;-66
2022/08/12 03:13:26;;;;;;;0.30;0.30;;;;;;;21.28;73.34;102179.91;1992762;29;20050;-65
2022/08/12 03:14:28;;;;;;;0.30;0.30;;;;;;;21.26;73.29;102183.03;1990576;29;20122;-66
2022/08/12 03:15:32;;;;;;;0.30;0.30;;;;;;;21.29;73.54;102181.47;1990516;29;20050;-66
2022/08/12 03:16:34;;;;;;;0.40;0.40;;;;;;;21.27;73.16;102183.81;1990919;29;20074;-66
2022/08/12 03:17:48;;;;;;;0.30;0.30;;;;;;;21.26;73.29;102188.53;1989154;29;20074;-66
2022/08/12 03:19:12;;;;;;;0.30;0.30;;;;;;;21.22;73.43;102181.41;1987301;29;20054;-66
2022/08/12 03:20:16;;;;;;;0.30;0.30;;;;;;;21.24;73.56;102179.88;1991450;29;20095;-67
2022/08/12 03:21:20;;;;;;;0.30;0.30;;;;;;;21.25;73.86;102175.19;1987834;29;20122;-66
2022/08/12 03:22:43;;;;;;;0.30;0.30;;;;;;;21.22;73.52;102176.72;1994016;29;20682;-66
2022/08/12 03:23:47;;;;;;;0.20;0.20;;;;;;;21.24;73.32;102177.13;1989623;29;20082;-67
2022/08/12 03:24:50;;;;;;;0.30;0.30;;;;;;;21.23;73.90;102172.78;1992455;29;20180;-67
2022/08/12 03:25:55;;;;;;;0.20;0.20;;;;;;;21.22;73.54;102179.47;1992196;29;20129;-65
2022/08/12 03:27:01;;;;;;;0.30;0.30;;;;;;;21.24;73.54;102182.63;1986219;29;20058;-65
2022/08/12 03:28:05;;;;;;;0.30;0.30;;;;;;;21.20;73.42;102176.28;1991093;29;20055;-65
2022/08/12 03:29:11;;;;;;;0.30;0.30;;;;;;;21.22;73.56;102181.41;1987546;29;20484;-65
2022/08/12 03:30:14;;;;;;;0.30;0.30;;;;;;;21.20;73.38;102178.28;1986752;29;20114;-65
2022/08/12 03:31:17;;;;;;;0.30;0.30;;;;;;;21.21;73.44;102177.09;1987481;29;20089;-65
2022/08/12 03:32:24;;;;;;;0.30;0.30;;;;;;;21.23;73.41;102180.25;1986673;29;20059;-65
2022/08/12 03:33:48;;;;;;;0.25;0.25;;;;;;;21.17;73.13;102173.53;1986510;29;20451;-65
2022/08/12 03:35:06;;;;;;;0.35;0.35;;;;;;;21.15;73.71;102184.91;1979416;29;20068;-65
2022/08/12 03:36:09;;;;;;;0.30;0.30;;;;;;;21.15;73.24;102173.91;1985711;29;20503;-65
2022/08/12 03:37:15;;;;;;;0.20;0.20;;;;;;;21.19;72.88;102177.47;1987790;29;20063;-65
2022/08/12 03:38:22;;;;;;;0.30;0.30;;;;;;;21.17;73.22;102179.81;1986748;29;20490;-65
2022/08/12 03:39:33;;;;;;;0.30;0.30;;;;;;;21.17;73.49;102179.81;1993021;29;20093;-65
2022/08/12 03:42:25;;;;;;;0.22;0.22;;;;;;;21.07;72.91;102171.47;1990073;29;20047;-65
2022/08/12 04:00:35;;;;;;;0.50;0.50;;;;;;;20.70;74.01;102168.75;1986915;29;20066;-65
2022/08/12 04:01:39;;;;;;;0.50;0.50;;;;;;;20.72;73.94;102171.91;1988163;29;20515;-65
2022/08/12 04:02:42;;;;;;;0.40;0.40;;;;;;;20.73;73.87;102165.25;1993839;29;20086;-65
2022/08/12 04:03:51;;;;;;;0.40;0.40;;;;;;;20.73;73.77;102170.72;1993238;29;20062;-65
2022/08/12 04:04:56;;;;;;;0.50;0.50;;;;;;;20.71;74.20;102173.06;1990135;29;20059;-65
2022/08/12 04:05:58;;;;;;;0.40;0.40;;;;;;;20.70;73.97;102175.03;1992582;29;20062;-66
2022/08/12 04:07:03;;;;;;;0.43;0.43;;;;;;;20.70;73.90;102176.97;1990892;29;20131;-66
2022/08/12 04:08:09;;;;;;;0.40;0.40;;;;;;;20.71;74.07;102178.53;1991970;29;20085;-66
2022/08/12 04:09:12;;;;;;;0.50;0.50;;;;;;;20.72;73.64;102180.16;1994820;29;20082;-66
2022/08/12 04:10:18;;;;;;;0.50;0.50;;;;;;;20.71;73.58;102186.78;1993754;29;20080;-66
2022/08/12 04:14:18;;;;;;;0.40;0.40;;;;;;;20.61;73.74;102174.53;1987762;29;20088;-66
2022/08/12 04:15:24;;;;;;;0.40;0.40;;;;;;;20.64;72.94;102173.00;1988286;29;20058;-66
2022/08/12 04:16:28;;;;;;;0.50;0.50;;;;;;;20.62;73.21;102178.06;1993043;29;20054;-65
2022/08/12 04:17:31;;;;;;;0.50;0.50;;;;;;;20.61;73.08;102169.03;1991642;29;20482;-65
2022/08/12 04:18:34;;;;;;;0.50;0.50;;;;;;;20.59;72.89;102170.59;1993640;29;20058;-66
2022/08/12 04:19:37;;;;;;;0.50;0.50;;;;;;;20.57;73.18;102161.94;1994717;29;20065;-66
2022/08/12 04:20:41;;;;;;;0.50;0.50;;;;;;;20.61;72.94;102166.28;1988049;29;20063;-67
2022/08/12 04:21:45;;;;;;;0.50;0.50;;;;;;;20.55;72.74;102169.78;1992437;29;20054;-66
2022/08/12 04:23:07;;;;;;;;;;;;;;;20.33;73.21;102167.94;1982993;29;20055;-65
2022/08/12 04:24:10;;;;;;;0.50;0.50;;;;;;;20.42;73.11;102165.72;1979630;29;19930;-65
2022/08/12 04:25:14;;;;;;;0.43;0.43;;;;;;;20.45;72.89;102170.44;1986654;29;20097;-65
2022/08/12 04:26:16;;;;;;;0.40;0.40;;;;;;;20.43;72.60;102170.00;1994822;29;20089;-65
2022/08/12 04:27:19;;;;;;;0.40;0.40;;;;;;;20.45;72.86;102170.44;1980236;29;20180;-65
2022/08/12 04:28:25;;;;;;;0.50;0.50;;;;;;;20.44;72.41;102166.91;1988493;29;20558;-65
2022/08/12 04:29:28;;;;;;;0.50;0.50;;;;;;;20.43;72.49;102172.75;1992693;29;20097;-65
2022/08/12 04:30:50;;;;;;;0.57;0.57;;;;;;;20.41;72.64;102164.09;1995233;29;20051;-65
2022/08/12 04:31:55;;;;;;;0.50;0.50;;;;;;;20.43;72.23;102168.06;1998032;29;20137;-65
2022/08/12 04:32:58;;;;;;;0.50;0.50;;;;;;;20.43;72.08;102173.56;1995647;29;20795;-65
2022/08/12 04:34:02;;;;;;;0.50;0.50;;;;;;;20.47;71.58;102170.88;1989391;29;20554;-65
2022/08/12 04:35:05;;;;;;;0.50;0.50;;;;;;;20.47;71.75;102168.88;1988921;29;20126;-65
2022/08/12 04:36:09;;;;;;;0.50;0.50;;;;;;;20.48;71.39;102172.44;1987802;29;20670;-66
2022/08/12 04:37:11;;;;;;;0.50;0.50;;;;;;;20.50;71.42;102164.63;1988554;29;20134;-65
2022/08/12 04:38:14;;;;;;;0.50;0.50;;;;;;;20.50;71.30;102161.88;2002520;29;20455;-65
2022/08/12 04:39:17;;;;;;;0.50;0.50;;;;;;;20.52;71.28;102170.50;1990918;29;20086;-64
2022/08/12 04:40:23;;;;;;;0.50;0.50;;;;;;;20.54;70.98;102168.97;1989530;29;20504;-65
2022/08/12 04:41:30;;;;;;;;;;;;;;;20.34;71.16;102169.53;1988455;29;20160;-65
2022/08/12 04:42:34;;;;;;;0.50;0.50;;;;;;;20.44;71.24;102166.91;1988636;29;20286;-66
2022/08/12 04:43:39;;;;;;;0.50;0.50;;;;;;;20.46;70.91;102169.25;1987774;29;20062;-65
2022/08/12 04:45:06;;;;;;;0.50;0.50;;;;;;;20.46;70.59;102169.25;1993697;29;20050;-65
2022/08/12 04:46:10;;;;;;;0.40;0.40;;;;;;;20.46;70.63;102166.53;1993910;29;20054;-65
2022/08/12 04:47:15;;;;;;;0.50;0.50;;;;;;;20.51;70.26;102168.94;1994558;29;20047;-65
2022/08/12 04:48:18;;;;;;;0.50;0.50;;;;;;;20.47;70.12;102168.88;1988632;29;20435;-65
2022/08/12 04:49:24;;;;;;;0.50;0.50;;;;;;;20.49;70.16;102165.75;1989767;29;20090;-65
2022/08/12 04:50:27;;;;;;;0.50;0.50;;;;;;;20.48;69.93;102175.19;1989171;29;20170;-66
2022/08/12 04:51:38;;;;;;;0.50;0.50;;;;;;;20.43;69.92;102175.50;1983881;29;20055;-66
2022/08/12 04:52:41;;;;;;;0.43;0.43;;;;;;;20.45;69.72;102173.19;1979055;29;20185;-66
2022/08/12 04:53:46;;;;;;;0.50;0.50;;;;;;;20.48;69.55;102170.50;1991265;29;20062;-66
2022/08/12 04:54:51;;;;;;;0.50;0.50;;;;;;;20.45;70.06;102173.19;1990683;29;20130;-66
2022/08/12 04:55:54;;;;;;;0.47;0.47;;;;;;;20.49;69.97;102179.50;1984643;29;20075;-66
2022/08/12 04:56:57;;;;;;;0.50;0.50;;;;;;;20.47;69.37;102173.59;1986335;29;20075;-66
2022/08/12 04:58:06;;;;;;;0.50;0.50;;;;;;;20.46;69.31;102172.81;1994516;29;20442;-66
2022/08/12 04:59:08;;;;;;;0.50;0.50;;;;;;;20.46;69.36;102177.50;1999581;29;20088;-66
2022/08/12 05:00:14;;;;;;;0.45;0.45;;;;;;;20.50;69.04;102178.34;1993629;29;20125;-65
2022/08/12 05:01:17;;;;;;;0.50;0.50;;;;;;;20.48;69.20;102180.66;1988531;29;20508;-65
2022/08/12 05:02:21;;;;;;;0.50;0.50;;;;;;;20.50;68.71;102176.38;1984258;29;20721;-65
2022/08/12 05:03:24;;;;;;;0.50;0.50;;;;;;;20.47;68.77;102165.38;1989723;29;20057;-66
2022/08/12 05:04:27;;;;;;;0.43;0.43;;;;;;;20.52;68.67;102174.03;1987420;29;20534;-66
2022/08/12 05:05:31;;;;;;;0.43;0.43;;;;;;;20.54;68.58;102168.97;1998917;29;20093;-65
2022/08/12 05:06:38;;;;;;;0.40;0.40;;;;;;;20.54;68.77;102174.47;1986825;29;20576;-66
2022/08/12 05:07:40;;;;;;;0.40;0.40;;;;;;;20.55;68.58;102175.25;1990074;29;20138;-65
2022/08/12 05:08:59;;;;;;;0.50;0.50;;;;;;;20.54;68.63;102168.19;1996404;29;20100;-66
2022/08/12 05:10:01;;;;;;;0.40;0.40;;;;;;;20.56;68.41;102171.34;1989605;29;20488;-65
2022/08/12 05:11:05;;;;;;;0.50;0.50;;;;;;;20.57;68.30;102165.47;1987319;29;20050;-65
2022/08/12 05:12:07;;;;;;;0.50;0.50;;;;;;;20.56;68.04;102165.84;1987621;29;20050;-66
2022/08/12 05:13:15;;;;;;;0.50;0.50;;;;;;;20.60;67.85;102177.66;1989899;29;20129;-65
2022/08/12 05:14:17;;;;;;;0.50;0.50;;;;;;;20.56;68.20;102171.34;1991801;29;20070;-65
2022/08/12 05:15:20;;;;;;;0.50;0.50;;;;;;;20.60;67.81;102167.47;1992623;29;20597;-65
2022/08/12 05:16:30;;;;;;;0.43;0.43;;;;;;;20.55;68.15;102170.53;1991493;29;20111;-65
2022/08/12 05:17:40;;;;;;;0.40;0.40;;;;;;;20.53;68.12;102170.13;1987156;29;20062;-65
2022/08/12 05:18:42;;;;;;;0.50;0.50;;;;;;;20.53;68.04;102166.63;1988587;29;20484;-66
2022/08/12 05:19:49;;;;;;;0.50;0.50;;;;;;;20.52;67.99;102170.50;1983518;29;20204;-65
2022/08/12 05:20:51;;;;;;;0.50;0.50;;;;;;;20.53;67.99;102166.63;1985664;29;20090;-65
2022/08/12 05:21:54;;;;;;;0.50;0.50;;;;;;;20.54;67.82;102166.22;1993296;29;20480;-65
2022/08/12 05:23:06;;;;;;;0.50;0.50;;;;;;;20.52;67.97;102165.00;1990914;29;20115;-65
2022/08/12 05:24:15;;;;;;;0.50;0.50;;;;;;;20.53;68.34;102172.09;1987418;29;20093;-66
2022/08/12 05:25:19;;;;;;;0.50;0.50;;;;;;;20.59;68.00;102171.38;1987629;29;20196;-66
2022/08/12 05:26:24;;;;;;;0.50;0.50;;;;;;;20.65;67.97;102174.56;1990718;29;20069;-66
2022/08/12 05:27:25;;;;;;;0.50;0.50;;;;;;;20.70;67.95;102176.97;1991894;29;20479;-65
2022/08/12 05:28:29;;;;;;;0.50;0.50;;;;;;;20.75;67.66;102174.69;1993501;29;20137;-65
2022/08/12 05:29:32;;;;;;;0.40;0.40;;;;;;;20.81;67.33;102177.88;1989604;29;20058;-66
2022/08/12 05:30:56;;;;;;;0.50;0.50;;;;;;;20.86;67.36;102177.53;1982315;29;20088;-66
2022/08/12 05:32:02;;;;;;;0.50;0.50;;;;;;;20.96;67.67;102176.88;1986315;29;20520;-66
2022/08/12 05:33:05;;;;;;;0.40;0.40;;;;;;;21.03;67.21;102176.94;1993536;29;20098;-65
2022/08/12 05:34:13;;;;;;;0.50;0.50;;;;;;;21.08;67.16;102186.78;1991758;29;20062;-65
2022/08/12 05:35:16;;;;;;;0.50;0.50;;;;;;;21.14;67.17;102188.81;1985982;29;20062;-65
2022/08/12 05:36:22;;;;;;;0.50;0.50;;;;;;;21.18;66.74;102181.41;1987891;29;20054;-65
2022/08/12 05:37:25;;;;;;;0.40;0.40;;;;;;;21.25;66.26;102188.91;1988403;29;20069;-65
2022/08/12 05:39:48;;;;;;;0.40;0.40;;;;;;;21.40;66.11;102188.63;1992990;29;20062;-65
2022/08/12 05:40:50;;;;;;;0.50;0.50;;;;;;;21.45;66.00;102188.28;1994984;29;20494;-64
2022/08/12 05:41:53;;;;;;;0.40;0.40;;;;;;;21.52;65.31;102187.53;1992290;29;20185;-64
2022/08/12 05:42:55;;;;;;;0.43;0.43;;;;;;;21.58;65.74;102194.25;1994991;29;20066;-64
2022/08/12 05:44:00;;;;;;;0.40;0.40;;;;;;;21.69;65.41;102197.88;1979617;29;20453;-66
2022/08/12 05:45:03;;;;;;;0.50;0.50;;;;;;;21.73;65.90;102191.22;1980640;29;20070;-66
2022/08/12 05:46:06;;;;;;;0.40;0.40;;;;;;;21.75;65.05;102190.84;1990432;29;20523;-66
2022/08/12 05:47:11;;;;;;;0.50;0.50;;;;;;;21.83;64.71;102190.53;1987774;29;20577;-66
2022/08/12 05:48:16;;;;;;;0.40;0.40;;;;;;;21.93;64.89;102194.50;1993722;29;20061;-66
2022/08/12 05:49:19;;;;;;;0.40;0.40;;;;;;;21.96;64.99;102189.00;1994993;29;20145;-65
2022/08/12 05:50:21;;;;;;;0.40;0.40;;;;;;;22.04;65.20;102196.13;1994532;29;20058;-65
2022/08/12 05:51:25;;;;;;;0.40;0.40;;;;;;;22.07;64.42;102195.34;1990168;29;20078;-65
2022/08/12 05:52:43;;;;;;;0.40;0.40;;;;;;;21.97;64.55;102200.81;1987235;29;20054;-66
2022/08/12 05:53:45;;;;;;;0.40;0.40;;;;;;;22.04;64.34;102201.63;1988973;29;20664;-65
2022/08/12 05:54:48;;;;;;;0.40;0.40;;;;;;;22.10;64.57;102191.06;1993978;29;20705;-65
2022/08/12 05:55:58;;;;;;;0.40;0.40;;;;;;;22.07;64.13;102200.09;1992904;29;20137;-65
2022/08/12 05:57:01;;;;;;;0.50;0.50;;;;;;;22.12;63.73;102206.00;1992821;29;20054;-65
2022/08/12 05:58:04;;;;;;;0.40;0.40;;;;;;;22.20;63.99;102199.34;1989552;29;20495;-66
2022/08/12 05:59:09;;;;;;;0.40;0.40;;;;;;;22.26;63.44;102204.50;1989253;29;20129;-65
2022/08/12 06:00:15;;;;;;;0.40;0.40;;;;;;;22.27;64.02;102204.09;1982037;29;20060;-66
2022/08/12 06:01:18;;;;;;;0.50;0.50;;;;;;;22.28;63.29;102205.66;1979556;29;20180;-66
2022/08/12 06:02:40;;;;;;;0.40;0.40;;;;;;;22.28;63.68;102205.66;1987094;29;20080;-65
2022/08/12 06:03:45;;;;;;;0.50;0.50;;;;;;;22.40;63.65;102208.09;1995806;29;20526;-66
2022/08/12 06:04:48;;;;;;;0.50;0.50;;;;;;;22.44;63.39;102208.13;1995100;29;20122;-66
2022/08/12 06:05:51;;;;;;;0.38;0.38;;;;;;;22.52;62.95;102206.97;1985756;29;20095;-67
2022/08/12 06:06:57;;;;;;;0.40;0.40;;;;;;;22.59;62.89;102209.75;1988523;29;20062;-66
2022/08/12 06:08:00;;;;;;;0.50;0.50;;;;;;;22.61;63.01;102212.91;1994702;29;20089;-66
2022/08/12 06:09:05;;;;;;;0.43;0.43;;;;;;;22.66;62.36;102215.28;1994323;29;20427;-66
2022/08/12 06:10:07;;;;;;;0.50;0.50;;;;;;;22.70;62.36;102216.88;1993091;29;20054;-66
2022/08/12 06:11:11;;;;;;;0.50;0.50;;;;;;;22.71;61.99;102220.41;1991870;29;20059;-66
2022/08/12 06:12:20;;;;;;;0.50;0.50;;;;;;;22.79;62.19;102216.47;1991851;29;20504;-66
2022/08/12 06:13:23;;;;;;;0.40;0.40;;;;;;;22.80;61.64;102210.59;1990944;29;20118;-66
2022/08/12 06:14:47;;;;;;;0.40;0.40;;;;;;;22.84;61.92;102210.59;1991408;29;20053;-66
2022/08/12 06:15:49;;;;;;;0.40;0.40;;;;;;;22.91;61.36;102218.88;1998084;29;20082;-67
2022/08/12 06:16:51;;;;;;;0.50;0.50;;;;;;;22.99;60.98;102223.22;1992040;29;20540;-65
2022/08/12 06:17:54;;;;;;;0.50;0.50;;;;;;;23.04;60.82;102218.09;1989145;29;20114;-65
2022/08/12 06:18:58;;;;;;;0.40;0.40;;;;;;;23.18;60.72;102220.88;1993596;29;20742;-65
2022/08/12 06:20:00;;;;;;;0.40;0.40;;;;;;;23.22;60.71;102215.38;1993767;29;20092;-66
2022/08/12 06:21:23;;;;;;;0.40;0.40;;;;;;;23.19;60.45;102218.91;1985699;29;20070;-66
2022/08/12 06:22:25;;;;;;;0.50;0.50;;;;;;;23.25;59.99;102220.09;1986642;29;20417;-66
2022/08/12 06:23:29;;;;;;;0.40;0.40;;;;;;;23.37;59.65;102217.00;1998230;29;20062;-66
2022/08/12 06:24:32;;;;;;;0.35;0.35;;;;;;;23.37;59.43;102219.75;1982979;29;20104;-66
2022/08/12 06:25:35;;;;;;;0.40;0.40;;;;;;;23.49;59.36;102224.84;1982481;29;20130;-67
2022/08/12 06:26:37;;;;;;;0.50;0.50;;;;;;;23.50;59.23;102227.22;1991845;29;20054;-66
2022/08/12 06:27:46;;;;;;;0.43;0.43;;;;;;;23.63;58.83;102227.59;1993951;29;20062;-66
2022/08/12 06:29:09;;;;;;;0.32;0.32;;;;;;;23.59;59.68;102224.84;1986092;29;20162;-65
2022/08/12 06:30:13;;;;;;;0.40;0.40;;;;;;;23.76;58.73;102230.72;1993364;29;20545;-66
2022/08/12 06:31:33;;;;;;;0.40;0.40;;;;;;;23.78;58.95;102229.16;1994805;29;20066;-66
2022/08/12 06:32:35;;;;;;;0.50;0.50;;;;;;;23.83;58.44;102226.00;1991056;29;20092;-65
2022/08/12 06:33:50;;;;;;;0.40;0.40;;;;;;;23.94;58.55;102228.72;1988097;29;20496;-65
2022/08/12 06:35:15;;;;;;;0.40;0.40;;;;;;;24.00;59.01;102233.47;1979601;29;20708;-65